Richwood, Ohio
Current Conditions -  °F | °C
As of 1:44 AM on Wednesday 28 Jan 2015 (Local Time) from KDLZ Reporting Station
Clear Clear  
Wind Chill:   Ceiling: Unl
Heat Index:   Visibility: 7mi
Dew Point: -4°   Wind: 0mph
Humidity: 78%   Direction: NA
Pressure: 30.23"   Gusts: NA
Location:  40.43°N, 83.3°W
Report Text: KDLZ 280644Z AUTO 00000KT 7SM CLR M17/M20 A3023 RMK AO2
Loading
Personal Weather Stations






























Interactive Weather Map New forecast layout! Learn more

10-Day Weather Forecast

Advertisements
Track Severe Weather on mobile